KOCW

Washington-Warren Airport

Washington, North Carolina, USA
METAR KOCW 160550Z AUTO 00000KT 10SM CLR 23/21 A3010 RMK AO2 T02310212 10277 20229 403310205
Observed Flight Rules
Aug-16 @ 05:50 UTC (27 minutes ago) Visual Flight Rules
Visibility Clouds
10 miles
  • Clear skies
Temperatures Readings
Current 23°C / 73°F
Dewpoint 21°C / 70°F
Humidity 89%
Altimeter 30.1" Hg
Pressure 1019 hPa
Elevation 12
METAR KOCW 160550Z AUTO 00000KT 10SM CLR 23/21 A3010 RMK AO2 T02310212 10277 20229 403310205
Observed Flight Rules
Aug-16 @ 05:50 UTC
(27 minutes ago)
VFR
Clouds
  • Clear skies
Temperature Dewpoint
23°C / 73°F 21°C / 70°F
Humidity Altimeter Pressure
89% 30.1" Hg 1019 hPa